sensor_id;sensor_type;location;lat;lon;timestamp;P1;durP1;ratioP1;P2;durP2;ratioP2
83190;SDS011;73087;49.924;22.080;2024-02-23T00:00:47;7.25;;;4.85;;
83190;SDS011;73087;49.924;22.080;2024-02-23T00:01:48;8.70;;;5.75;;
83190;SDS011;73087;49.924;22.080;2024-02-23T00:02:48;5.95;;;4.72;;
83190;SDS011;73087;49.924;22.080;2024-02-23T00:03:49;7.28;;;5.47;;
83190;SDS011;73087;49.924;22.080;2024-02-23T00:04:49;8.82;;;6.22;;
83190;SDS011;73087;49.924;22.080;2024-02-23T00:05:50;7.40;;;6.07;;
83190;SDS011;73087;49.924;22.080;2024-02-23T00:06:50;7.13;;;4.93;;
83190;SDS011;73087;49.924;22.080;2024-02-23T00:07:51;5.95;;;5.00;;
83190;SDS011;73087;49.924;22.080;2024-02-23T00:08:51;7.13;;;4.47;;
83190;SDS011;73087;49.924;22.080;2024-02-23T00:09:52;7.15;;;5.78;;
83190;SDS011;73087;49.924;22.080;2024-02-23T00:10:52;9.20;;;6.63;;
83190;SDS011;73087;49.924;22.080;2024-02-23T00:11:53;7.82;;;5.95;;
83190;SDS011;73087;49.924;22.080;2024-02-23T00:12:53;5.40;;;4.60;;
83190;SDS011;73087;49.924;22.080;2024-02-23T00:13:54;6.85;;;4.90;;
83190;SDS011;73087;49.924;22.080;2024-02-23T00:14:56;6.38;;;4.35;;
83190;SDS011;73087;49.924;22.080;2024-02-23T00:15:57;6.25;;;4.63;;
83190;SDS011;73087;49.924;22.080;2024-02-23T00:16:57;5.20;;;4.32;;
83190;SDS011;73087;49.924;22.080;2024-02-23T00:17:58;8.10;;;4.53;;
83190;SDS011;73087;49.924;22.080;2024-02-23T00:18:58;6.30;;;4.72;;
83190;SDS011;73087;49.924;22.080;2024-02-23T00:19:59;6.30;;;4.95;;
83190;SDS011;73087;49.924;22.080;2024-02-23T00:21:00;5.70;;;4.65;;
83190;SDS011;73087;49.924;22.080;2024-02-23T00:22:00;6.38;;;5.10;;
83190;SDS011;73087;49.924;22.080;2024-02-23T00:23:01;7.15;;;5.18;;
83190;SDS011;73087;49.924;22.080;2024-02-23T00:24:01;6.07;;;5.15;;
83190;SDS011;73087;49.924;22.080;2024-02-23T00:25:02;7.20;;;4.97;;
83190;SDS011;73087;49.924;22.080;2024-02-23T00:26:03;6.30;;;4.40;;
83190;SDS011;73087;49.924;22.080;2024-02-23T00:27:04;7.45;;;4.80;;
83190;SDS011;73087;49.924;22.080;2024-02-23T00:28:05;7.47;;;4.70;;
83190;SDS011;73087;49.924;22.080;2024-02-23T00:29:05;5.75;;;4.72;;
83190;SDS011;73087;49.924;22.080;2024-02-23T00:30:08;6.20;;;4.35;;
83190;SDS011;73087;49.924;22.080;2024-02-23T00:31:09;5.80;;;4.57;;
83190;SDS011;73087;49.924;22.080;2024-02-23T00:32:09;5.18;;;3.95;;
83190;SDS011;73087;49.924;22.080;2024-02-23T00:33:10;6.60;;;4.70;;
83190;SDS011;73087;49.924;22.080;2024-02-23T00:34:11;6.50;;;4.93;;
83190;SDS011;73087;49.924;22.080;2024-02-23T00:35:11;8.02;;;4.65;;
83190;SDS011;73087;49.924;22.080;2024-02-23T00:36:12;6.22;;;4.55;;
83190;SDS011;73087;49.924;22.080;2024-02-23T00:37:13;6.28;;;4.65;;
83190;SDS011;73087;49.924;22.080;2024-02-23T00:38:13;8.73;;;4.88;;
83190;SDS011;73087;49.924;22.080;2024-02-23T00:39:14;6.18;;;4.40;;
83190;SDS011;73087;49.924;22.080;2024-02-23T00:40:14;6.43;;;5.07;;
83190;SDS011;73087;49.924;22.080;2024-02-23T00:41:15;5.72;;;4.18;;
83190;SDS011;73087;49.924;22.080;2024-02-23T00:42:15;4.90;;;3.97;;
83190;SDS011;73087;49.924;22.080;2024-02-23T00:43:16;5.40;;;3.90;;
83190;SDS011;73087;49.924;22.080;2024-02-23T00:44:18;6.35;;;4.43;;
83190;SDS011;73087;49.924;22.080;2024-02-23T00:45:20;5.95;;;4.38;;
83190;SDS011;73087;49.924;22.080;2024-02-23T00:46:21;6.28;;;3.97;;
83190;SDS011;73087;49.924;22.080;2024-02-23T00:47:21;7.75;;;4.38;;
83190;SDS011;73087;49.924;22.080;2024-02-23T00:48:22;5.57;;;4.50;;
83190;SDS011;73087;49.924;22.080;2024-02-23T00:49:23;4.97;;;4.20;;
83190;SDS011;73087;49.924;22.080;2024-02-23T00:50:23;6.95;;;4.28;;
83190;SDS011;73087;49.924;22.080;2024-02-23T00:51:24;6.28;;;5.00;;
83190;SDS011;73087;49.924;22.080;2024-02-23T00:52:24;5.07;;;3.67;;
83190;SDS011;73087;49.924;22.080;2024-02-23T00:53:25;6.80;;;4.35;;
83190;SDS011;73087;49.924;22.080;2024-02-23T00:54:25;5.75;;;3.55;;
83190;SDS011;73087;49.924;22.080;2024-02-23T00:55:26;5.88;;;3.90;;
83190;SDS011;73087;49.924;22.080;2024-02-23T00:56:26;5.32;;;3.83;;
83190;SDS011;73087;49.924;22.080;2024-02-23T00:57:27;4.72;;;3.90;;
83190;SDS011;73087;49.924;22.080;2024-02-23T00:58:27;5.15;;;3.70;;
83190;SDS011;73087;49.924;22.080;2024-02-23T00:59:29;5.55;;;3.83;;
83190;SDS011;73087;49.924;22.080;2024-02-23T01:00:31;10.50;;;4.57;;
83190;SDS011;73087;49.924;22.080;2024-02-23T01:01:31;6.55;;;4.30;;
83190;SDS011;73087;49.924;22.080;2024-02-23T01:02:32;7.07;;;4.25;;
83190;SDS011;73087;49.924;22.080;2024-02-23T01:03:33;6.82;;;3.92;;
83190;SDS011;73087;49.924;22.080;2024-02-23T01:04:33;5.35;;;3.95;;
83190;SDS011;73087;49.924;22.080;2024-02-23T01:05:34;6.57;;;4.65;;
83190;SDS011;73087;49.924;22.080;2024-02-23T01:06:34;5.55;;;3.92;;
83190;SDS011;73087;49.924;22.080;2024-02-23T01:07:35;5.28;;;4.03;;
83190;SDS011;73087;49.924;22.080;2024-02-23T01:08:35;6.88;;;4.05;;
83190;SDS011;73087;49.924;22.080;2024-02-23T01:09:36;6.80;;;3.72;;
83190;SDS011;73087;49.924;22.080;2024-02-23T01:10:36;6.40;;;3.83;;
83190;SDS011;73087;49.924;22.080;2024-02-23T01:11:37;5.60;;;4.07;;
83190;SDS011;73087;49.924;22.080;2024-02-23T01:12:37;6.20;;;4.35;;
83190;SDS011;73087;49.924;22.080;2024-02-23T01:13:38;5.70;;;4.43;;
83190;SDS011;73087;49.924;22.080;2024-02-23T01:14:38;6.80;;;3.58;;
83190;SDS011;73087;49.924;22.080;2024-02-23T01:15:40;5.93;;;3.88;;
83190;SDS011;73087;49.924;22.080;2024-02-23T01:16:41;5.53;;;3.70;;
83190;SDS011;73087;49.924;22.080;2024-02-23T01:17:41;6.28;;;3.80;;
83190;SDS011;73087;49.924;22.080;2024-02-23T01:18:42;5.93;;;3.80;;
83190;SDS011;73087;49.924;22.080;2024-02-23T01:19:43;6.07;;;4.20;;
83190;SDS011;73087;49.924;22.080;2024-02-23T01:20:43;5.80;;;4.13;;
83190;SDS011;73087;49.924;22.080;2024-02-23T01:21:44;6.40;;;3.65;;
83190;SDS011;73087;49.924;22.080;2024-02-23T01:22:44;4.93;;;3.65;;
83190;SDS011;73087;49.924;22.080;2024-02-23T01:23:45;6.93;;;4.47;;
83190;SDS011;73087;49.924;22.080;2024-02-23T01:24:45;5.20;;;4.10;;
83190;SDS011;73087;49.924;22.080;2024-02-23T01:25:46;5.72;;;3.53;;
83190;SDS011;73087;49.924;22.080;2024-02-23T01:26:46;5.18;;;4.00;;
83190;SDS011;73087;49.924;22.080;2024-02-23T01:27:47;5.65;;;4.00;;
83190;SDS011;73087;49.924;22.080;2024-02-23T01:28:48;4.90;;;3.88;;
83190;SDS011;73087;49.924;22.080;2024-02-23T01:29:48;6.03;;;4.38;;
83190;SDS011;73087;49.924;22.080;2024-02-23T01:30:50;5.47;;;3.67;;
83190;SDS011;73087;49.924;22.080;2024-02-23T01:31:51;6.82;;;4.35;;
83190;SDS011;73087;49.924;22.080;2024-02-23T01:32:51;6.25;;;3.78;;
83190;SDS011;73087;49.924;22.080;2024-02-23T01:33:52;5.13;;;3.72;;
83190;SDS011;73087;49.924;22.080;2024-02-23T01:34:52;5.05;;;4.00;;
83190;SDS011;73087;49.924;22.080;2024-02-23T01:35:53;6.78;;;4.00;;
83190;SDS011;73087;49.924;22.080;2024-02-23T01:36:54;5.90;;;4.15;;
83190;SDS011;73087;49.924;22.080;2024-02-23T01:37:54;6.05;;;3.92;;
83190;SDS011;73087;49.924;22.080;2024-02-23T01:38:55;6.35;;;3.17;;
83190;SDS011;73087;49.924;22.080;2024-02-23T01:39:55;5.38;;;3.40;;
83190;SDS011;73087;49.924;22.080;2024-02-23T01:40:56;7.72;;;4.38;;
83190;SDS011;73087;49.924;22.080;2024-02-23T01:41:56;5.97;;;3.50;;
83190;SDS011;73087;49.924;22.080;2024-02-23T01:43:00;5.68;;;3.75;;
83190;SDS011;73087;49.924;22.080;2024-02-23T01:44:01;8.02;;;3.95;;
83190;SDS011;73087;49.924;22.080;2024-02-23T01:45:02;5.40;;;3.67;;
83190;SDS011;73087;49.924;22.080;2024-02-23T01:46:05;6.10;;;3.85;;
83190;SDS011;73087;49.924;22.080;2024-02-23T01:47:05;5.32;;;3.40;;
83190;SDS011;73087;49.924;22.080;2024-02-23T01:48:06;5.45;;;3.70;;
83190;SDS011;73087;49.924;22.080;2024-02-23T01:49:07;7.07;;;4.32;;
83190;SDS011;73087;49.924;22.080;2024-02-23T01:50:09;6.35;;;4.32;;
83190;SDS011;73087;49.924;22.080;2024-02-23T01:51:09;5.10;;;3.63;;
83190;SDS011;73087;49.924;22.080;2024-02-23T01:52:11;10.30;;;3.45;;
83190;SDS011;73087;49.924;22.080;2024-02-23T01:53:12;5.75;;;3.58;;
83190;SDS011;73087;49.924;22.080;2024-02-23T01:54:13;7.28;;;3.92;;
83190;SDS011;73087;49.924;22.080;2024-02-23T01:55:15;6.60;;;3.97;;
83190;SDS011;73087;49.924;22.080;2024-02-23T01:56:15;5.55;;;4.00;;
83190;SDS011;73087;49.924;22.080;2024-02-23T01:57:17;5.43;;;3.40;;
83190;SDS011;73087;49.924;22.080;2024-02-23T01:58:17;5.15;;;3.65;;
83190;SDS011;73087;49.924;22.080;2024-02-23T01:59:18;6.13;;;3.70;;
83190;SDS011;73087;49.924;22.080;2024-02-23T02:00:19;6.07;;;3.90;;
83190;SDS011;73087;49.924;22.080;2024-02-23T02:01:21;5.95;;;3.70;;
83190;SDS011;73087;49.924;22.080;2024-02-23T02:02:22;4.80;;;2.97;;
83190;SDS011;73087;49.924;22.080;2024-02-23T02:03:23;6.25;;;4.40;;
83190;SDS011;73087;49.924;22.080;2024-02-23T02:04:23;5.53;;;3.85;;
83190;SDS011;73087;49.924;22.080;2024-02-23T02:05:24;4.20;;;3.17;;
83190;SDS011;73087;49.924;22.080;2024-02-23T02:06:25;6.25;;;3.90;;
83190;SDS011;73087;49.924;22.080;2024-02-23T02:07:25;5.57;;;4.00;;
83190;SDS011;73087;49.924;22.080;2024-02-23T02:08:26;4.47;;;3.35;;
83190;SDS011;73087;49.924;22.080;2024-02-23T02:09:26;4.63;;;3.40;;
83190;SDS011;73087;49.924;22.080;2024-02-23T02:10:27;5.18;;;3.22;;
83190;SDS011;73087;49.924;22.080;2024-02-23T02:11:28;4.95;;;3.75;;
83190;SDS011;73087;49.924;22.080;2024-02-23T02:12:28;5.57;;;4.20;;
83190;SDS011;73087;49.924;22.080;2024-02-23T02:13:29;4.93;;;3.60;;
83190;SDS011;73087;49.924;22.080;2024-02-23T02:14:30;6.38;;;3.50;;
83190;SDS011;73087;49.924;22.080;2024-02-23T02:15:30;5.20;;;3.55;;
83190;SDS011;73087;49.924;22.080;2024-02-23T02:16:32;4.35;;;3.20;;
83190;SDS011;73087;49.924;22.080;2024-02-23T02:17:33;5.63;;;3.75;;
83190;SDS011;73087;49.924;22.080;2024-02-23T02:18:34;6.50;;;3.55;;
83190;SDS011;73087;49.924;22.080;2024-02-23T02:19:34;6.22;;;3.55;;
83190;SDS011;73087;49.924;22.080;2024-02-23T02:20:35;5.43;;;3.17;;
83190;SDS011;73087;49.924;22.080;2024-02-23T02:21:36;4.97;;;3.15;;
83190;SDS011;73087;49.924;22.080;2024-02-23T02:22:37;4.60;;;3.60;;
83190;SDS011;73087;49.924;22.080;2024-02-23T02:23:38;5.47;;;3.35;;
83190;SDS011;73087;49.924;22.080;2024-02-23T02:24:39;4.63;;;3.30;;
83190;SDS011;73087;49.924;22.080;2024-02-23T02:25:39;5.45;;;3.55;;
83190;SDS011;73087;49.924;22.080;2024-02-23T02:26:40;5.72;;;3.38;;
83190;SDS011;73087;49.924;22.080;2024-02-23T02:27:40;5.35;;;3.53;;
83190;SDS011;73087;49.924;22.080;2024-02-23T02:28:41;4.90;;;3.38;;
83190;SDS011;73087;49.924;22.080;2024-02-23T02:29:41;4.18;;;2.92;;
83190;SDS011;73087;49.924;22.080;2024-02-23T02:30:42;4.15;;;3.00;;
83190;SDS011;73087;49.924;22.080;2024-02-23T02:31:44;6.63;;;3.88;;
83190;SDS011;73087;49.924;22.080;2024-02-23T02:32:44;5.20;;;3.30;;
83190;SDS011;73087;49.924;22.080;2024-02-23T02:33:45;4.45;;;3.00;;
83190;SDS011;73087;49.924;22.080;2024-02-23T02:34:45;6.85;;;3.35;;
83190;SDS011;73087;49.924;22.080;2024-02-23T02:35:46;4.85;;;3.22;;
83190;SDS011;73087;49.924;22.080;2024-02-23T02:36:47;6.03;;;3.35;;
83190;SDS011;73087;49.924;22.080;2024-02-23T02:37:47;6.60;;;3.80;;
83190;SDS011;73087;49.924;22.080;2024-02-23T02:38:48;4.38;;;3.17;;
83190;SDS011;73087;49.924;22.080;2024-02-23T02:39:48;5.68;;;3.13;;
83190;SDS011;73087;49.924;22.080;2024-02-23T02:40:49;5.72;;;3.42;;
83190;SDS011;73087;49.924;22.080;2024-02-23T02:41:49;4.20;;;2.78;;
83190;SDS011;73087;49.924;22.080;2024-02-23T02:42:50;5.40;;;3.75;;
83190;SDS011;73087;49.924;22.080;2024-02-23T02:43:50;5.03;;;3.50;;
83190;SDS011;73087;49.924;22.080;2024-02-23T02:44:51;4.72;;;3.70;;
83190;SDS011;73087;49.924;22.080;2024-02-23T02:45:51;4.70;;;3.72;;
83190;SDS011;73087;49.924;22.080;2024-02-23T02:46:53;6.45;;;3.58;;
83190;SDS011;73087;49.924;22.080;2024-02-23T02:47:54;5.55;;;3.33;;
83190;SDS011;73087;49.924;22.080;2024-02-23T02:48:55;4.72;;;3.42;;
83190;SDS011;73087;49.924;22.080;2024-02-23T02:49:55;4.47;;;3.30;;
83190;SDS011;73087;49.924;22.080;2024-02-23T02:50:56;5.90;;;3.63;;
83190;SDS011;73087;49.924;22.080;2024-02-23T02:51:56;4.50;;;3.22;;
83190;SDS011;73087;49.924;22.080;2024-02-23T02:52:57;6.18;;;3.70;;
83190;SDS011;73087;49.924;22.080;2024-02-23T02:53:57;3.90;;;2.78;;
83190;SDS011;73087;49.924;22.080;2024-02-23T02:54:58;6.78;;;3.47;;
83190;SDS011;73087;49.924;22.080;2024-02-23T02:55:58;7.05;;;3.25;;
83190;SDS011;73087;49.924;22.080;2024-02-23T02:56:59;4.53;;;3.03;;
83190;SDS011;73087;49.924;22.080;2024-02-23T02:57:59;4.75;;;3.00;;
83190;SDS011;73087;49.924;22.080;2024-02-23T02:59:00;4.55;;;3.10;;
83190;SDS011;73087;49.924;22.080;2024-02-23T03:00:00;4.95;;;3.05;;
83190;SDS011;73087;49.924;22.080;2024-02-23T03:01:01;5.07;;;3.05;;
83190;SDS011;73087;49.924;22.080;2024-02-23T03:02:03;4.15;;;2.80;;
83190;SDS011;73087;49.924;22.080;2024-02-23T03:03:04;6.03;;;3.50;;
83190;SDS011;73087;49.924;22.080;2024-02-23T03:04:05;4.78;;;3.00;;
83190;SDS011;73087;49.924;22.080;2024-02-23T03:05:06;4.40;;;3.13;;
83190;SDS011;73087;49.924;22.080;2024-02-23T03:06:07;6.03;;;3.78;;
83190;SDS011;73087;49.924;22.080;2024-02-23T03:07:08;4.78;;;3.25;;
83190;SDS011;73087;49.924;22.080;2024-02-23T03:08:08;4.07;;;2.80;;
83190;SDS011;73087;49.924;22.080;2024-02-23T03:09:09;5.38;;;3.05;;
83190;SDS011;73087;49.924;22.080;2024-02-23T03:10:09;4.57;;;2.83;;
83190;SDS011;73087;49.924;22.080;2024-02-23T03:11:10;6.75;;;3.33;;
83190;SDS011;73087;49.924;22.080;2024-02-23T03:12:10;4.43;;;3.20;;
83190;SDS011;73087;49.924;22.080;2024-02-23T03:13:11;3.45;;;2.83;;
83190;SDS011;73087;49.924;22.080;2024-02-23T03:14:12;5.63;;;3.65;;
83190;SDS011;73087;49.924;22.080;2024-02-23T03:15:12;3.95;;;2.45;;
83190;SDS011;73087;49.924;22.080;2024-02-23T03:16:14;5.70;;;3.90;;
83190;SDS011;73087;49.924;22.080;2024-02-23T03:17:16;3.58;;;2.80;;
83190;SDS011;73087;49.924;22.080;2024-02-23T03:18:17;4.82;;;3.22;;
83190;SDS011;73087;49.924;22.080;2024-02-23T03:19:17;7.25;;;3.20;;
83190;SDS011;73087;49.924;22.080;2024-02-23T03:20:18;5.88;;;3.42;;
83190;SDS011;73087;49.924;22.080;2024-02-23T03:21:18;4.78;;;3.08;;
83190;SDS011;73087;49.924;22.080;2024-02-23T03:22:19;5.32;;;3.53;;
83190;SDS011;73087;49.924;22.080;2024-02-23T03:23:20;5.30;;;3.03;;
83190;SDS011;73087;49.924;22.080;2024-02-23T03:24:20;5.97;;;3.03;;
83190;SDS011;73087;49.924;22.080;2024-02-23T03:25:21;4.20;;;2.95;;
83190;SDS011;73087;49.924;22.080;2024-02-23T03:26:21;3.22;;;2.75;;
83190;SDS011;73087;49.924;22.080;2024-02-23T03:27:27;5.70;;;3.50;;
83190;SDS011;73087;49.924;22.080;2024-02-23T03:28:28;5.53;;;3.10;;
83190;SDS011;73087;49.924;22.080;2024-02-23T03:29:29;4.55;;;2.90;;
83190;SDS011;73087;49.924;22.080;2024-02-23T03:30:30;6.03;;;3.00;;
83190;SDS011;73087;49.924;22.080;2024-02-23T03:31:30;4.78;;;3.15;;
83190;SDS011;73087;49.924;22.080;2024-02-23T03:32:32;3.90;;;3.03;;
83190;SDS011;73087;49.924;22.080;2024-02-23T03:33:33;5.18;;;3.15;;
83190;SDS011;73087;49.924;22.080;2024-02-23T03:34:33;4.82;;;2.85;;
83190;SDS011;73087;49.924;22.080;2024-02-23T03:35:34;4.13;;;3.20;;
83190;SDS011;73087;49.924;22.080;2024-02-23T03:36:34;5.75;;;3.42;;
83190;SDS011;73087;49.924;22.080;2024-02-23T03:37:36;5.03;;;2.92;;
83190;SDS011;73087;49.924;22.080;2024-02-23T03:38:37;4.97;;;3.00;;
83190;SDS011;73087;49.924;22.080;2024-02-23T03:39:37;4.60;;;2.55;;
83190;SDS011;73087;49.924;22.080;2024-02-23T03:40:38;4.20;;;3.08;;
83190;SDS011;73087;49.924;22.080;2024-02-23T03:41:38;5.70;;;3.38;;
83190;SDS011;73087;49.924;22.080;2024-02-23T03:42:39;4.40;;;2.83;;
83190;SDS011;73087;49.924;22.080;2024-02-23T03:43:39;5.07;;;3.63;;
83190;SDS011;73087;49.924;22.080;2024-02-23T03:44:40;4.03;;;2.95;;
83190;SDS011;73087;49.924;22.080;2024-02-23T03:45:41;3.70;;;2.90;;
83190;SDS011;73087;49.924;22.080;2024-02-23T03:46:41;3.80;;;3.03;;
83190;SDS011;73087;49.924;22.080;2024-02-23T03:47:43;5.00;;;3.50;;
83190;SDS011;73087;49.924;22.080;2024-02-23T03:48:44;4.50;;;3.08;;
83190;SDS011;73087;49.924;22.080;2024-02-23T03:49:45;3.78;;;2.80;;
83190;SDS011;73087;49.924;22.080;2024-02-23T03:50:45;3.80;;;2.92;;
83190;SDS011;73087;49.924;22.080;2024-02-23T03:51:47;5.97;;;3.45;;
83190;SDS011;73087;49.924;22.080;2024-02-23T03:52:47;4.53;;;2.90;;
83190;SDS011;73087;49.924;22.080;2024-02-23T03:53:48;6.88;;;2.72;;
83190;SDS011;73087;49.924;22.080;2024-02-23T03:54:48;4.20;;;2.75;;
83190;SDS011;73087;49.924;22.080;2024-02-23T03:55:49;5.03;;;3.00;;
83190;SDS011;73087;49.924;22.080;2024-02-23T03:56:50;4.63;;;3.10;;
83190;SDS011;73087;49.924;22.080;2024-02-23T03:57:50;3.67;;;2.80;;
83190;SDS011;73087;49.924;22.080;2024-02-23T03:58:51;3.95;;;2.95;;
83190;SDS011;73087;49.924;22.080;2024-02-23T03:59:51;4.10;;;2.92;;
83190;SDS011;73087;49.924;22.080;2024-02-23T04:00:52;3.90;;;2.65;;
83190;SDS011;73087;49.924;22.080;2024-02-23T04:01:53;4.90;;;3.38;;
83190;SDS011;73087;49.924;22.080;2024-02-23T04:02:55;4.45;;;2.58;;
83190;SDS011;73087;49.924;22.080;2024-02-23T04:03:55;3.97;;;2.92;;
83190;SDS011;73087;49.924;22.080;2024-02-23T04:04:56;4.05;;;2.90;;
83190;SDS011;73087;49.924;22.080;2024-02-23T04:05:56;4.18;;;2.75;;
83190;SDS011;73087;49.924;22.080;2024-02-23T04:06:57;5.20;;;2.92;;
83190;SDS011;73087;49.924;22.080;2024-02-23T04:07:57;4.18;;;3.10;;
83190;SDS011;73087;49.924;22.080;2024-02-23T04:08:58;4.60;;;2.90;;
83190;SDS011;73087;49.924;22.080;2024-02-23T04:09:58;6.80;;;3.38;;
83190;SDS011;73087;49.924;22.080;2024-02-23T04:10:59;4.57;;;3.17;;
83190;SDS011;73087;49.924;22.080;2024-02-23T04:11:59;4.00;;;2.60;;
83190;SDS011;73087;49.924;22.080;2024-02-23T04:13:00;4.97;;;3.03;;
83190;SDS011;73087;49.924;22.080;2024-02-23T04:14:01;4.38;;;2.55;;
83190;SDS011;73087;49.924;22.080;2024-02-23T04:15:02;5.32;;;2.90;;
83190;SDS011;73087;49.924;22.080;2024-02-23T04:16:03;3.72;;;3.10;;
83190;SDS011;73087;49.924;22.080;2024-02-23T04:17:04;3.78;;;2.70;;
83190;SDS011;73087;49.924;22.080;2024-02-23T04:18:06;4.70;;;3.10;;
83190;SDS011;73087;49.924;22.080;2024-02-23T04:19:06;3.85;;;2.55;;
83190;SDS011;73087;49.924;22.080;2024-02-23T04:20:07;3.63;;;2.92;;
83190;SDS011;73087;49.924;22.080;2024-02-23T04:21:08;3.85;;;2.83;;
83190;SDS011;73087;49.924;22.080;2024-02-23T04:22:09;4.93;;;2.80;;
83190;SDS011;73087;49.924;22.080;2024-02-23T04:23:10;4.35;;;3.05;;
83190;SDS011;73087;49.924;22.080;2024-02-23T04:24:11;3.85;;;2.70;;
83190;SDS011;73087;49.924;22.080;2024-02-23T04:25:12;3.30;;;2.50;;
83190;SDS011;73087;49.924;22.080;2024-02-23T04:26:12;3.88;;;2.45;;
83190;SDS011;73087;49.924;22.080;2024-02-23T04:27:13;4.57;;;2.65;;
83190;SDS011;73087;49.924;22.080;2024-02-23T04:28:14;4.15;;;3.22;;
83190;SDS011;73087;49.924;22.080;2024-02-23T04:29:14;4.35;;;2.92;;
83190;SDS011;73087;49.924;22.080;2024-02-23T04:30:15;4.03;;;2.72;;
83190;SDS011;73087;49.924;22.080;2024-02-23T04:31:16;4.07;;;2.75;;
83190;SDS011;73087;49.924;22.080;2024-02-23T04:32:16;4.50;;;2.88;;
83190;SDS011;73087;49.924;22.080;2024-02-23T04:33:18;4.80;;;2.70;;
83190;SDS011;73087;49.924;22.080;2024-02-23T04:34:19;4.95;;;3.15;;
83190;SDS011;73087;49.924;22.080;2024-02-23T04:35:19;4.20;;;2.80;;
83190;SDS011;73087;49.924;22.080;2024-02-23T04:36:20;4.47;;;3.00;;
83190;SDS011;73087;49.924;22.080;2024-02-23T04:37:21;4.03;;;2.45;;
83190;SDS011;73087;49.924;22.080;2024-02-23T04:38:21;5.47;;;2.50;;
83190;SDS011;73087;49.924;22.080;2024-02-23T04:39:22;4.85;;;3.20;;
83190;SDS011;73087;49.924;22.080;2024-02-23T04:40:22;3.53;;;2.65;;
83190;SDS011;73087;49.924;22.080;2024-02-23T04:41:23;3.67;;;2.80;;
83190;SDS011;73087;49.924;22.080;2024-02-23T04:42:23;3.45;;;2.60;;
83190;SDS011;73087;49.924;22.080;2024-02-23T04:43:24;4.60;;;3.17;;
83190;SDS011;73087;49.924;22.080;2024-02-23T04:44:25;4.75;;;2.92;;
83190;SDS011;73087;49.924;22.080;2024-02-23T04:45:25;3.15;;;2.42;;
83190;SDS011;73087;49.924;22.080;2024-02-23T04:46:26;5.13;;;3.00;;
83190;SDS011;73087;49.924;22.080;2024-02-23T04:47:27;7.80;;;3.72;;
83190;SDS011;73087;49.924;22.080;2024-02-23T04:48:29;5.75;;;3.55;;
83190;SDS011;73087;49.924;22.080;2024-02-23T04:49:29;3.85;;;3.08;;
83190;SDS011;73087;49.924;22.080;2024-02-23T04:50:30;4.53;;;3.10;;
83190;SDS011;73087;49.924;22.080;2024-02-23T04:51:30;4.10;;;2.58;;
83190;SDS011;73087;49.924;22.080;2024-02-23T04:52:31;3.80;;;3.00;;
83190;SDS011;73087;49.924;22.080;2024-02-23T04:53:31;3.97;;;2.63;;
83190;SDS011;73087;49.924;22.080;2024-02-23T04:54:35;4.72;;;3.20;;
83190;SDS011;73087;49.924;22.080;2024-02-23T04:55:36;4.43;;;3.00;;
83190;SDS011;73087;49.924;22.080;2024-02-23T04:56:36;3.83;;;2.90;;
83190;SDS011;73087;49.924;22.080;2024-02-23T04:57:37;3.95;;;2.70;;
83190;SDS011;73087;49.924;22.080;2024-02-23T04:58:38;4.20;;;3.20;;
83190;SDS011;73087;49.924;22.080;2024-02-23T04:59:38;3.63;;;2.67;;
83190;SDS011;73087;49.924;22.080;2024-02-23T05:00:39;5.43;;;3.10;;
83190;SDS011;73087;49.924;22.080;2024-02-23T05:01:39;5.30;;;3.25;;
83190;SDS011;73087;49.924;22.080;2024-02-23T05:02:40;4.53;;;3.10;;
83190;SDS011;73087;49.924;22.080;2024-02-23T05:03:42;5.05;;;3.25;;
83190;SDS011;73087;49.924;22.080;2024-02-23T05:04:42;4.82;;;3.10;;
83190;SDS011;73087;49.924;22.080;2024-02-23T05:05:43;4.20;;;2.75;;
83190;SDS011;73087;49.924;22.080;2024-02-23T05:06:43;5.13;;;3.25;;
83190;SDS011;73087;49.924;22.080;2024-02-23T05:07:44;4.15;;;2.85;;
83190;SDS011;73087;49.924;22.080;2024-02-23T05:08:44;5.15;;;3.15;;
83190;SDS011;73087;49.924;22.080;2024-02-23T05:09:45;4.55;;;2.67;;
83190;SDS011;73087;49.924;22.080;2024-02-23T05:10:45;3.92;;;2.95;;
83190;SDS011;73087;49.924;22.080;2024-02-23T05:11:46;4.57;;;2.72;;
83190;SDS011;73087;49.924;22.080;2024-02-23T05:12:47;3.88;;;2.70;;
83190;SDS011;73087;49.924;22.080;2024-02-23T05:13:47;4.80;;;2.80;;
83190;SDS011;73087;49.924;22.080;2024-02-23T05:14:48;4.53;;;3.25;;
83190;SDS011;73087;49.924;22.080;2024-02-23T05:15:48;4.05;;;2.90;;
83190;SDS011;73087;49.924;22.080;2024-02-23T05:16:49;4.95;;;3.40;;
83190;SDS011;73087;49.924;22.080;2024-02-23T05:17:49;4.18;;;3.00;;
83190;SDS011;73087;49.924;22.080;2024-02-23T05:18:51;5.35;;;3.40;;
83190;SDS011;73087;49.924;22.080;2024-02-23T05:19:52;5.45;;;2.90;;
83190;SDS011;73087;49.924;22.080;2024-02-23T05:20:52;3.70;;;2.83;;
83190;SDS011;73087;49.924;22.080;2024-02-23T05:21:53;5.00;;;3.22;;
83190;SDS011;73087;49.924;22.080;2024-02-23T05:22:53;4.95;;;3.58;;
83190;SDS011;73087;49.924;22.080;2024-02-23T05:23:54;5.20;;;3.30;;
83190;SDS011;73087;49.924;22.080;2024-02-23T05:24:54;4.70;;;2.95;;
83190;SDS011;73087;49.924;22.080;2024-02-23T05:25:55;5.32;;;3.17;;
83190;SDS011;73087;49.924;22.080;2024-02-23T05:26:55;5.65;;;3.15;;
83190;SDS011;73087;49.924;22.080;2024-02-23T05:27:56;4.18;;;3.25;;
83190;SDS011;73087;49.924;22.080;2024-02-23T05:28:57;4.35;;;3.25;;
83190;SDS011;73087;49.924;22.080;2024-02-23T05:29:57;5.22;;;3.00;;
83190;SDS011;73087;49.924;22.080;2024-02-23T05:30:58;4.38;;;3.13;;
83190;SDS011;73087;49.924;22.080;2024-02-23T05:31:58;4.20;;;2.72;;
83190;SDS011;73087;49.924;22.080;2024-02-23T05:32:59;4.60;;;3.50;;
83190;SDS011;73087;49.924;22.080;2024-02-23T05:34:01;5.68;;;3.38;;
83190;SDS011;73087;49.924;22.080;2024-02-23T05:35:01;4.90;;;3.63;;
83190;SDS011;73087;49.924;22.080;2024-02-23T05:36:03;5.25;;;3.67;;
83190;SDS011;73087;49.924;22.080;2024-02-23T05:37:04;4.68;;;3.20;;
83190;SDS011;73087;49.924;22.080;2024-02-23T05:38:05;5.50;;;3.70;;
83190;SDS011;73087;49.924;22.080;2024-02-23T05:39:05;5.13;;;3.63;;
83190;SDS011;73087;49.924;22.080;2024-02-23T05:40:06;5.38;;;3.20;;
83190;SDS011;73087;49.924;22.080;2024-02-23T05:41:11;6.43;;;3.60;;
83190;SDS011;73087;49.924;22.080;2024-02-23T05:42:12;6.82;;;4.32;;
83190;SDS011;73087;49.924;22.080;2024-02-23T05:43:12;3.90;;;3.30;;
83190;SDS011;73087;49.924;22.080;2024-02-23T05:44:13;4.68;;;3.53;;
83190;SDS011;73087;49.924;22.080;2024-02-23T05:45:14;4.10;;;3.10;;
83190;SDS011;73087;49.924;22.080;2024-02-23T05:46:14;4.53;;;3.25;;
83190;SDS011;73087;49.924;22.080;2024-02-23T05:47:15;5.35;;;3.58;;
83190;SDS011;73087;49.924;22.080;2024-02-23T05:48:15;5.25;;;3.22;;
83190;SDS011;73087;49.924;22.080;2024-02-23T05:49:17;4.55;;;3.33;;
83190;SDS011;73087;49.924;22.080;2024-02-23T05:50:18;5.13;;;3.65;;
83190;SDS011;73087;49.924;22.080;2024-02-23T05:51:18;5.15;;;3.40;;
83190;SDS011;73087;49.924;22.080;2024-02-23T05:52:19;4.82;;;3.60;;
83190;SDS011;73087;49.924;22.080;2024-02-23T05:53:19;4.97;;;3.28;;
83190;SDS011;73087;49.924;22.080;2024-02-23T05:54:20;5.68;;;3.17;;
83190;SDS011;73087;49.924;22.080;2024-02-23T05:55:20;4.88;;;2.83;;
83190;SDS011;73087;49.924;22.080;2024-02-23T05:56:21;4.47;;;3.03;;
83190;SDS011;73087;49.924;22.080;2024-02-23T05:57:21;4.50;;;3.15;;
83190;SDS011;73087;49.924;22.080;2024-02-23T05:58:22;4.97;;;3.42;;
83190;SDS011;73087;49.924;22.080;2024-02-23T05:59:23;4.13;;;3.28;;
83190;SDS011;73087;49.924;22.080;2024-02-23T06:00:23;3.97;;;3.13;;